createdAt,value
2022-08-01T00:00:42.508Z,67.39
2022-08-01T00:01:42.506Z,67.89
2022-08-01T00:02:42.596Z,67.69
2022-08-01T00:03:42.505Z,67.99
2022-08-01T00:04:42.504Z,67.49
2022-08-01T00:05:42.502Z,68.59
2022-08-01T00:06:42.502Z,68.69
2022-08-01T00:07:42.508Z,68.89
2022-08-01T00:08:42.497Z,69.09
2022-08-01T00:09:42.500Z,69.69
2022-08-01T00:10:42.495Z,69.19
2022-08-01T00:11:42.493Z,69.93
2022-08-01T00:12:42.490Z,71.69
2022-08-01T00:13:42.492Z,73.53
2022-08-01T00:14:42.491Z,74.63
2022-08-01T00:15:51.801Z,75.74
2022-08-01T00:16:42.492Z,76.67
2022-08-01T00:17:42.516Z,77.91
2022-08-01T00:18:42.483Z,78.42
2022-08-01T00:19:42.486Z,78.11
2022-08-01T00:20:42.483Z,79.52
2022-08-01T00:22:02.160Z,79.75
2022-08-01T00:22:42.474Z,80.76
2022-08-01T00:23:42.478Z,81.90
2022-08-01T00:24:42.470Z,82.40
2022-08-01T00:25:42.474Z,83.21
2022-08-01T00:26:42.474Z,84.21
2022-08-01T00:27:42.468Z,84.25
2022-08-01T00:28:42.479Z,84.99
2022-08-01T00:30:11.812Z,85.60
2022-08-01T00:30:42.465Z,84.89
2022-08-01T00:31:42.464Z,85.70
2022-08-01T00:32:42.467Z,86.10
2022-08-01T00:33:42.470Z,86.30
2022-08-01T00:34:42.459Z,86.20
2022-08-01T00:35:42.473Z,86.70
2022-08-01T00:36:42.453Z,86.30
2022-08-01T00:37:42.454Z,86.80
2022-08-01T00:38:42.454Z,86.80
2022-08-01T00:39:42.451Z,86.90
2022-08-01T00:40:42.449Z,87.30
2022-08-01T00:41:42.441Z,87.30
2022-08-01T00:42:43.823Z,87.01
2022-08-01T00:43:42.444Z,87.35
2022-08-01T00:44:42.438Z,87.60
2022-08-01T00:45:42.443Z,87.65
2022-08-01T00:46:42.441Z,87.95
2022-08-01T00:47:42.437Z,88.05
2022-08-01T00:48:42.429Z,87.65
2022-08-01T00:49:42.423Z,88.15
2022-08-01T00:50:42.427Z,88.25
2022-08-01T00:51:42.434Z,88.15
2022-08-01T00:52:42.420Z,88.45
2022-08-01T00:53:51.661Z,88.15
2022-08-01T00:54:42.434Z,88.15
2022-08-01T00:55:42.414Z,88.25
2022-08-01T00:56:42.409Z,88.25
2022-08-01T00:58:03.268Z,88.25
2022-08-01T00:58:42.405Z,88.35
2022-08-01T00:59:42.414Z,88.05
2022-08-01T01:00:54.145Z,88.11
2022-08-01T01:01:46.366Z,87.85
2022-08-01T01:02:42.401Z,87.81
2022-08-01T01:03:58.623Z,87.71
2022-08-01T01:04:42.395Z,87.55
2022-08-01T01:05:42.400Z,87.71
2022-08-01T01:06:42.391Z,87.81
2022-08-01T01:07:50.091Z,87.41
2022-08-01T01:08:42.386Z,87.41
2022-08-01T01:09:42.381Z,87.41
2022-08-01T01:10:42.382Z,87.41
2022-08-01T01:11:42.384Z,87.71
2022-08-01T01:12:42.820Z,87.41
2022-08-01T01:13:49.581Z,87.81
2022-08-01T01:14:42.382Z,87.85
2022-08-01T01:15:42.373Z,87.75
2022-08-01T01:16:42.373Z,87.71
2022-08-01T01:17:50.470Z,88.01
2022-08-01T01:18:42.366Z,88.35
2022-08-01T01:19:42.371Z,88.25
2022-08-01T01:20:42.370Z,88.15
2022-08-01T01:21:42.355Z,88.61
2022-08-01T01:22:42.356Z,88.55
2022-08-01T01:23:42.357Z,88.71
2022-08-01T01:24:42.353Z,88.41
2022-08-01T01:25:42.360Z,88.41
2022-08-01T01:26:42.351Z,88.95
2022-08-01T01:27:42.357Z,89.36
2022-08-01T01:28:42.353Z,89.36
2022-08-01T01:29:59.593Z,89.46
2022-08-01T01:30:42.342Z,89.56
2022-08-01T01:31:42.348Z,89.15
2022-08-01T01:32:42.336Z,89.46
2022-08-01T01:33:47.427Z,89.46
2022-08-01T01:34:42.337Z,89.66
2022-08-01T01:35:42.333Z,89.66
2022-08-01T01:36:42.339Z,89.56
2022-08-01T01:37:42.337Z,89.56
2022-08-01T01:38:42.328Z,89.76
2022-08-01T01:39:45.318Z,89.56
2022-08-01T01:40:42.325Z,89.86
2022-08-01T01:41:42.324Z,89.46
2022-08-01T01:42:42.323Z,89.76
2022-08-01T01:43:42.332Z,89.62
2022-08-01T01:44:42.321Z,89.22
2022-08-01T01:45:42.314Z,89.31
2022-08-01T01:46:42.314Z,89.26
2022-08-01T01:47:42.312Z,89.11
2022-08-01T01:48:42.312Z,89.31
2022-08-01T01:49:42.308Z,89.11
2022-08-01T01:50:42.313Z,89.51
2022-08-01T01:51:42.309Z,89.06
2022-08-01T01:52:42.301Z,88.95
2022-08-01T01:53:42.301Z,89.15
2022-08-01T01:54:42.306Z,88.95
2022-08-01T01:55:49.362Z,89.26
2022-08-01T01:56:42.292Z,89.15
2022-08-01T01:57:42.294Z,89.56
2022-08-01T01:58:42.294Z,90.06
2022-08-01T01:59:42.295Z,90.41
2022-08-01T02:00:42.294Z,90.61
2022-08-01T02:02:05.429Z,90.20
2022-08-01T02:02:42.400Z,90.41
2022-08-01T02:03:42.289Z,90.41
2022-08-01T02:04:42.281Z,90.50
2022-08-01T02:05:42.279Z,90.11
2022-08-01T02:06:42.278Z,90.11
2022-08-01T02:07:42.275Z,90.11
2022-08-01T02:08:42.271Z,90.00
2022-08-01T02:09:42.273Z,90.30
2022-08-01T02:10:42.269Z,90.81
2022-08-01T02:12:07.400Z,90.65
2022-08-01T02:12:42.266Z,91.05
2022-08-01T02:13:42.266Z,90.65
2022-08-01T02:14:42.270Z,90.69
2022-08-01T02:16:00.246Z,90.85
2022-08-01T02:16:42.260Z,90.85
2022-08-01T02:17:42.259Z,90.85
2022-08-01T02:18:42.259Z,90.95
2022-08-01T02:19:42.253Z,90.85
2022-08-01T02:20:42.252Z,91.35
2022-08-01T02:21:42.252Z,90.69
2022-08-01T02:22:42.249Z,91.46
2022-08-01T02:23:42.251Z,91.60
2022-08-01T02:24:42.249Z,91.50
2022-08-01T02:26:10.470Z,91.50
2022-08-01T02:26:42.246Z,91.46
2022-08-01T02:27:42.243Z,91.30
2022-08-01T02:28:42.241Z,91.80
2022-08-01T02:29:42.239Z,91.86
2022-08-01T02:30:42.231Z,91.90
2022-08-01T02:31:42.231Z,91.80
2022-08-01T02:32:42.232Z,91.80
2022-08-01T02:33:42.230Z,92.06
2022-08-01T02:34:42.233Z,91.90
2022-08-01T02:36:30.414Z,91.86
2022-08-01T02:36:42.224Z,92.00
2022-08-01T02:37:44.424Z,91.60
2022-08-01T02:38:42.223Z,91.80
2022-08-01T02:39:42.219Z,91.86
2022-08-01T02:40:42.217Z,91.70
2022-08-01T02:41:42.220Z,91.75
2022-08-01T02:42:42.214Z,92.00
2022-08-01T02:43:42.214Z,91.90
2022-08-01T02:44:42.214Z,91.86
2022-08-01T02:45:42.208Z,91.80
2022-08-01T02:46:42.207Z,91.39
2022-08-01T02:47:42.211Z,91.90
2022-08-01T02:48:42.203Z,91.75
2022-08-01T02:49:42.209Z,92.00
2022-08-01T02:50:42.199Z,91.75
2022-08-01T02:51:42.202Z,91.55
2022-08-01T02:52:42.195Z,91.60
2022-08-01T02:53:44.683Z,91.55
2022-08-01T02:54:42.189Z,91.75
2022-08-01T02:55:42.190Z,91.55
2022-08-01T02:56:42.188Z,91.70
2022-08-01T02:57:51.318Z,91.80
2022-08-01T02:58:42.188Z,91.50
2022-08-01T02:59:42.195Z,92.00
2022-08-01T03:00:42.180Z,91.90
2022-08-01T03:01:42.320Z,91.80
2022-08-01T03:02:42.181Z,92.50
2022-08-01T03:03:42.176Z,92.60
2022-08-01T03:04:42.174Z,92.60
2022-08-01T03:05:42.171Z,92.71
2022-08-01T03:06:45.009Z,92.60
2022-08-01T03:07:42.168Z,92.71
2022-08-01T03:08:42.163Z,92.56
2022-08-01T03:09:42.161Z,92.71
2022-08-01T03:10:42.175Z,92.56
2022-08-01T03:11:42.162Z,92.60
2022-08-01T03:12:42.163Z,92.60
2022-08-01T03:13:42.158Z,92.56
2022-08-01T03:14:42.154Z,92.50
2022-08-01T03:15:42.154Z,92.46
2022-08-01T03:16:42.153Z,92.36
2022-08-01T03:17:42.145Z,92.26
2022-08-01T03:18:42.147Z,92.36
2022-08-01T03:19:42.147Z,92.16
2022-08-01T03:20:42.145Z,92.36
2022-08-01T03:21:42.148Z,91.75
2022-08-01T03:22:42.141Z,91.75
2022-08-01T03:23:42.139Z,91.66
2022-08-01T03:24:42.141Z,91.61
2022-08-01T03:25:42.135Z,91.61
2022-08-01T03:26:42.133Z,91.82
2022-08-01T03:27:42.133Z,91.82
2022-08-01T03:28:42.128Z,91.71
2022-08-01T03:29:42.122Z,91.71
2022-08-01T03:30:42.129Z,91.31
2022-08-01T03:31:42.124Z,91.41
2022-08-01T03:32:42.122Z,91.21
2022-08-01T03:33:42.130Z,90.81
2022-08-01T03:34:42.118Z,91.31
2022-08-01T03:35:42.117Z,91.01
2022-08-01T03:36:42.116Z,91.01
2022-08-01T03:38:00.035Z,90.50
2022-08-01T03:38:42.111Z,91.11
2022-08-01T03:39:42.119Z,90.61
2022-08-01T03:40:42.109Z,90.41
2022-08-01T03:41:42.103Z,90.70
2022-08-01T03:42:42.103Z,90.61
2022-08-01T03:43:42.110Z,90.91
2022-08-01T03:44:42.101Z,90.97
2022-08-01T03:45:42.097Z,89.96
2022-08-01T03:46:42.096Z,89.86
2022-08-01T03:47:44.594Z,90.16
2022-08-01T03:48:42.095Z,89.46
2022-08-01T03:49:42.090Z,89.76
2022-08-01T03:50:42.092Z,89.66
2022-08-01T03:51:42.087Z,89.86
2022-08-01T03:52:42.083Z,89.66
2022-08-01T03:53:42.458Z,89.76
2022-08-01T03:54:42.082Z,89.56
2022-08-01T03:55:42.081Z,89.76
2022-08-01T03:56:42.083Z,89.46
2022-08-01T03:57:42.076Z,89.76
2022-08-01T03:58:42.074Z,90.06
2022-08-01T03:59:42.079Z,90.16
2022-08-01T04:00:42.068Z,90.06
2022-08-01T04:01:42.129Z,89.46
2022-08-01T04:02:42.074Z,89.76
2022-08-01T04:03:43.231Z,89.56
2022-08-01T04:04:42.061Z,90.06
2022-08-01T04:05:42.061Z,89.56
2022-08-01T04:06:42.073Z,89.56
2022-08-01T04:07:42.057Z,89.82
2022-08-01T04:08:42.058Z,89.51
2022-08-01T04:09:42.058Z,89.51
2022-08-01T04:10:42.053Z,89.51
2022-08-01T04:11:42.075Z,89.76
2022-08-01T04:12:42.051Z,89.51
2022-08-01T04:13:44.332Z,89.42
2022-08-01T04:14:42.052Z,89.56
2022-08-01T04:15:42.047Z,89.51
2022-08-01T04:16:42.045Z,89.11
2022-08-01T04:17:42.040Z,88.75
2022-08-01T04:18:42.041Z,89.11
2022-08-01T04:19:42.036Z,88.91
2022-08-01T04:20:42.039Z,89.51
2022-08-01T04:21:42.038Z,88.81
2022-08-01T04:22:42.035Z,88.91
2022-08-01T04:23:42.031Z,88.71
2022-08-01T04:24:42.028Z,88.71
2022-08-01T04:25:42.030Z,88.67
2022-08-01T04:26:42.020Z,88.81
2022-08-01T04:27:50.079Z,88.71
2022-08-01T04:28:42.026Z,88.71
2022-08-01T04:29:42.020Z,88.37
2022-08-01T04:30:42.020Z,88.71
2022-08-01T04:31:42.024Z,88.71
2022-08-01T04:32:42.013Z,88.61
2022-08-01T04:33:42.011Z,88.77
2022-08-01T04:34:42.014Z,88.91
2022-08-01T04:36:02.187Z,88.71
2022-08-01T04:36:42.006Z,88.91
2022-08-01T04:37:42.006Z,89.11
2022-08-01T04:38:42.005Z,89.22
2022-08-01T04:39:50.747Z,89.42
2022-08-01T04:40:41.999Z,89.31
2022-08-01T04:41:41.999Z,89.01
2022-08-01T04:42:41.996Z,89.31
2022-08-01T04:43:44.230Z,89.22
2022-08-01T04:44:42.136Z,89.72
2022-08-01T04:45:41.996Z,89.42
2022-08-01T04:46:41.997Z,89.51
2022-08-01T04:47:41.990Z,89.51
2022-08-01T04:48:41.986Z,89.72
2022-08-01T04:49:44.437Z,89.51
2022-08-01T04:50:41.979Z,89.51
2022-08-01T04:51:41.978Z,89.62
2022-08-01T04:52:41.978Z,89.58
2022-08-01T04:53:41.975Z,89.58
2022-08-01T04:54:41.978Z,89.98
2022-08-01T04:55:41.986Z,89.37
2022-08-01T04:56:41.971Z,89.47
2022-08-01T04:57:41.972Z,89.47
2022-08-01T04:58:41.968Z,89.67
2022-08-01T04:59:41.966Z,89.67
2022-08-01T05:00:41.964Z,89.58
2022-08-01T05:01:42.704Z,89.67
2022-08-01T05:02:41.962Z,90.08
2022-08-01T05:03:41.959Z,90.48
2022-08-01T05:04:41.956Z,90.32
2022-08-01T05:05:41.961Z,90.62
2022-08-01T05:06:41.959Z,90.82
2022-08-01T05:07:45.132Z,91.28
2022-08-01T05:08:41.969Z,91.48
2022-08-01T05:09:41.948Z,91.63
2022-08-01T05:10:41.980Z,91.72
2022-08-01T05:11:41.944Z,91.38
2022-08-01T05:12:41.944Z,91.42
2022-08-01T05:13:41.940Z,91.52
2022-08-01T05:14:41.937Z,91.63
2022-08-01T05:15:41.936Z,91.38
2022-08-01T05:16:41.937Z,91.48
2022-08-01T05:17:41.934Z,91.68
2022-08-01T05:18:41.932Z,91.78
2022-08-01T05:19:41.930Z,91.68
2022-08-01T05:20:41.927Z,91.58
2022-08-01T05:21:41.928Z,91.68
2022-08-01T05:22:41.924Z,90.98
2022-08-01T05:23:43.597Z,91.38
2022-08-01T05:24:41.928Z,91.99
2022-08-01T05:25:56.593Z,91.48
2022-08-01T05:26:41.914Z,91.48
2022-08-01T05:27:41.917Z,91.48
2022-08-01T05:28:41.939Z,90.68
2022-08-01T05:29:44.820Z,90.88
2022-08-01T05:30:41.918Z,91.14
2022-08-01T05:31:41.908Z,91.44
2022-08-01T05:32:41.908Z,90.94
2022-08-01T05:33:41.909Z,90.53
2022-08-01T05:34:41.905Z,90.84
2022-08-01T05:35:48.296Z,91.14
2022-08-01T05:36:41.900Z,91.03
2022-08-01T05:37:41.895Z,90.53
2022-08-01T05:38:41.897Z,90.44
2022-08-01T05:39:41.897Z,90.44
2022-08-01T05:40:41.900Z,90.23
2022-08-01T05:41:41.892Z,90.44
2022-08-01T05:42:41.894Z,90.53
2022-08-01T05:43:41.889Z,90.64
2022-08-01T05:44:41.892Z,90.53
2022-08-01T05:45:41.887Z,90.53
2022-08-01T05:46:41.883Z,91.03
2022-08-01T05:47:43.199Z,90.53
2022-08-01T05:48:41.887Z,90.39
2022-08-01T05:49:41.875Z,90.29
2022-08-01T05:50:41.878Z,90.29
2022-08-01T05:51:41.876Z,90.39
2022-08-01T05:52:41.871Z,90.39
2022-08-01T05:53:41.881Z,89.79
2022-08-01T05:54:41.871Z,90.09
2022-08-01T05:55:41.869Z,89.79
2022-08-01T05:56:41.870Z,90.44
2022-08-01T05:57:41.864Z,90.64
2022-08-01T05:58:41.864Z,90.79
2022-08-01T05:59:41.863Z,90.39
2022-08-01T06:00:41.864Z,90.59
2022-08-01T06:01:41.898Z,89.89
2022-08-01T06:02:41.918Z,89.89
2022-08-01T06:03:41.856Z,89.29
2022-08-01T06:04:41.851Z,89.89
2022-08-01T06:05:41.854Z,90.39
2022-08-01T06:06:41.849Z,90.39
2022-08-01T06:07:41.850Z,90.64
2022-08-01T06:08:41.850Z,89.94
2022-08-01T06:09:41.845Z,90.29
2022-08-01T06:10:41.843Z,90.69
2022-08-01T06:11:41.843Z,89.99
2022-08-01T06:12:41.849Z,89.94
2022-08-01T06:13:44.894Z,90.39
2022-08-01T06:14:41.841Z,90.49
2022-08-01T06:15:41.835Z,89.89
2022-08-01T06:16:41.828Z,90.39
2022-08-01T06:17:41.854Z,89.89
2022-08-01T06:18:41.827Z,89.89
2022-08-01T06:19:41.830Z,90.05
2022-08-01T06:20:41.835Z,89.65
2022-08-01T06:21:41.826Z,89.34
2022-08-01T06:22:41.822Z,89.04
2022-08-01T06:23:41.825Z,88.80
2022-08-01T06:24:41.813Z,88.50
2022-08-01T06:25:41.815Z,88.64
2022-08-01T06:26:41.820Z,88.75
2022-08-01T06:27:41.816Z,88.64
2022-08-01T06:28:41.812Z,88.75
2022-08-01T06:29:41.822Z,88.24
2022-08-01T06:30:41.808Z,88.10
2022-08-01T06:31:41.815Z,87.44
2022-08-01T06:32:41.809Z,87.40
2022-08-01T06:33:41.806Z,87.40
2022-08-01T06:34:41.808Z,87.24
2022-08-01T06:35:41.806Z,87.60
2022-08-01T06:36:41.800Z,87.20
2022-08-01T06:37:41.800Z,87.16
2022-08-01T06:38:41.800Z,86.55
2022-08-01T06:39:41.805Z,86.35
2022-08-01T06:40:41.792Z,86.16
2022-08-01T06:41:41.796Z,85.96
2022-08-01T06:42:41.796Z,86.25
2022-08-01T06:43:41.798Z,86.25
2022-08-01T06:44:41.789Z,86.35
2022-08-01T06:45:41.787Z,85.51
2022-08-01T06:46:41.786Z,85.91
2022-08-01T06:47:41.788Z,85.71
2022-08-01T06:48:41.808Z,85.51
2022-08-01T06:49:41.780Z,86.01
2022-08-01T06:50:41.783Z,84.51
2022-08-01T06:51:41.781Z,85.71
2022-08-01T06:52:41.826Z,85.71
2022-08-01T06:53:41.780Z,84.95
2022-08-01T06:54:41.775Z,85.75
2022-08-01T06:55:41.789Z,85.35
2022-08-01T06:56:41.773Z,85.75
2022-08-01T06:57:41.771Z,86.10
2022-08-01T06:58:41.835Z,86.25
2022-08-01T06:59:41.769Z,85.89
2022-08-01T07:00:41.808Z,86.69
2022-08-01T07:01:41.761Z,85.99
2022-08-01T07:02:41.765Z,86.19
2022-08-01T07:03:54.338Z,85.89
2022-08-01T07:04:41.759Z,86.50
2022-08-01T07:05:41.761Z,85.80
2022-08-01T07:06:41.763Z,86.30
2022-08-01T07:07:41.760Z,86.50
2022-08-01T07:08:41.757Z,86.60
2022-08-01T07:09:41.759Z,85.83
2022-08-01T07:10:41.757Z,86.64
2022-08-01T07:11:41.756Z,87.24
2022-08-01T07:12:41.755Z,87.34
2022-08-01T07:13:44.389Z,87.74
2022-08-01T07:14:41.746Z,87.44
2022-08-01T07:15:41.745Z,87.54
2022-08-01T07:16:41.744Z,87.34
2022-08-01T07:17:41.742Z,87.54
2022-08-01T07:18:41.753Z,87.70
2022-08-01T07:19:41.739Z,87.30
2022-08-01T07:20:51.863Z,85.80
2022-08-01T07:21:41.961Z,86.30
2022-08-01T07:22:41.733Z,86.19
2022-08-01T07:23:43.601Z,86.19
2022-08-01T07:24:45.932Z,86.46
2022-08-01T07:25:41.728Z,85.75
2022-08-01T07:26:53.059Z,84.81
2022-08-01T07:27:41.727Z,84.71
2022-08-01T07:28:43.896Z,84.31
2022-08-01T07:29:41.726Z,83.97
2022-08-01T07:30:41.729Z,83.47
2022-08-01T07:31:41.722Z,83.47
2022-08-01T07:32:41.723Z,82.87
2022-08-01T07:33:48.516Z,82.57
2022-08-01T07:34:41.725Z,81.33
2022-08-01T07:35:41.715Z,80.63
2022-08-01T07:36:41.717Z,81.33
2022-08-01T07:37:47.637Z,81.63
2022-08-01T07:38:41.713Z,80.79
2022-08-01T07:39:41.713Z,80.69
2022-08-01T07:40:41.711Z,80.53
2022-08-01T07:41:52.740Z,80.83
2022-08-01T07:42:41.712Z,79.99
2022-08-01T07:43:47.212Z,79.53
2022-08-01T07:44:41.707Z,79.53
2022-08-01T07:45:46.364Z,80.13
2022-08-01T07:46:41.712Z,80.57
2022-08-01T07:47:41.704Z,80.13
2022-08-01T07:48:41.706Z,80.73
2022-08-01T07:49:41.767Z,79.86
2022-08-01T07:50:41.712Z,80.47
2022-08-01T07:51:41.728Z,81.17
2022-08-01T07:52:41.699Z,81.37
2022-08-01T07:53:41.701Z,81.61
2022-08-01T07:54:41.695Z,81.61
2022-08-01T07:55:41.701Z,81.71
2022-08-01T07:56:41.700Z,82.31
2022-08-01T07:57:41.738Z,81.61
2022-08-01T07:58:41.697Z,82.81
2022-08-01T07:59:41.700Z,82.65
2022-08-01T08:00:41.691Z,82.75
2022-08-01T08:01:41.739Z,83.15
2022-08-01T08:02:41.696Z,83.69
2022-08-01T08:03:41.691Z,83.65
2022-08-01T08:04:45.686Z,82.99
2022-08-01T08:05:51.324Z,83.49
2022-08-01T08:06:41.685Z,83.45
2022-08-01T08:07:41.702Z,82.99
2022-08-01T08:08:41.692Z,82.89
2022-08-01T08:09:41.680Z,81.45
2022-08-01T08:10:41.679Z,81.45
2022-08-01T08:11:45.757Z,81.95
2022-08-01T08:12:41.677Z,81.61
2022-08-01T08:13:41.674Z,81.71
2022-08-01T08:14:41.675Z,81.81
2022-08-01T08:15:41.675Z,80.77
2022-08-01T08:16:41.668Z,79.57
2022-08-01T08:17:41.668Z,79.03
2022-08-01T08:18:41.671Z,78.59
2022-08-01T08:19:41.666Z,77.51
2022-08-01T08:20:41.669Z,75.28
2022-08-01T08:21:41.665Z,75.48
2022-08-01T08:22:41.667Z,74.85
2022-08-01T08:23:43.817Z,74.32
2022-08-01T08:24:46.305Z,73.32
2022-08-01T08:25:41.664Z,72.92
2022-08-01T08:26:41.661Z,72.85
2022-08-01T08:27:41.663Z,73.85
2022-08-01T08:28:41.663Z,72.99
2022-08-01T08:29:41.660Z,73.58
2022-08-01T08:30:41.659Z,73.99
2022-08-01T08:31:52.648Z,75.22
2022-08-01T08:32:41.655Z,75.72
2022-08-01T08:33:41.657Z,74.02
2022-08-01T08:34:41.661Z,73.82
2022-08-01T08:35:53.684Z,74.52
2022-08-01T08:36:47.952Z,75.32
2022-08-01T08:37:47.565Z,75.82
2022-08-01T08:38:41.650Z,75.42
2022-08-01T08:39:42.445Z,74.82
2022-08-01T08:40:41.653Z,74.52
2022-08-01T08:41:41.657Z,75.22
2022-08-01T08:42:41.650Z,75.22
2022-08-01T08:43:41.650Z,75.52
2022-08-01T08:44:43.393Z,74.58
2022-08-01T08:45:58.948Z,74.08
2022-08-01T08:46:41.665Z,73.55
2022-08-01T08:47:41.656Z,73.22
2022-08-01T08:48:41.650Z,73.02
2022-08-01T08:49:43.628Z,72.49
2022-08-01T08:50:41.649Z,70.89
2022-08-01T08:51:41.654Z,70.99
2022-08-01T08:52:41.649Z,70.09
2022-08-01T08:53:41.649Z,68.99
2022-08-01T08:54:41.648Z,69.26
2022-08-01T08:55:55.514Z,70.06
2022-08-01T08:56:41.644Z,69.66
2022-08-01T08:57:41.720Z,68.96
2022-08-01T08:58:41.649Z,69.86
2022-08-01T08:59:41.648Z,69.86
2022-08-01T09:00:41.650Z,70.16
2022-08-01T09:01:41.648Z,69.36
2022-08-01T09:02:41.668Z,69.26
2022-08-01T09:03:41.902Z,69.79
2022-08-01T09:04:41.646Z,69.99
2022-08-01T09:05:41.649Z,70.29
2022-08-01T09:06:41.650Z,70.92
2022-08-01T09:07:41.676Z,70.39
2022-08-01T09:08:41.646Z,70.39
2022-08-01T09:09:42.048Z,71.09
2022-08-01T09:10:41.645Z,71.12
2022-08-01T09:11:41.644Z,71.12
2022-08-01T09:12:41.647Z,70.53
2022-08-01T09:13:45.233Z,70.69
2022-08-01T09:14:41.649Z,70.39
2022-08-01T09:15:41.647Z,70.99
2022-08-01T09:16:44.207Z,70.19
2022-08-01T09:17:41.648Z,69.99
2022-08-01T09:18:41.674Z,71.09
2022-08-01T09:19:42.058Z,70.99
2022-08-01T09:20:41.651Z,71.09
2022-08-01T09:21:41.647Z,70.62
2022-08-01T09:22:43.986Z,71.82
2022-08-01T09:23:53.835Z,71.95
2022-08-01T09:24:41.682Z,71.75
2022-08-01T09:25:46.240Z,72.49
2022-08-01T09:26:41.645Z,72.62
2022-08-01T09:27:44.130Z,73.22
2022-08-01T09:28:44.960Z,73.32
2022-08-01T09:29:41.648Z,73.82
2022-08-01T09:30:41.645Z,74.52
2022-08-01T09:31:41.648Z,74.52
2022-08-01T09:32:41.645Z,74.22
2022-08-01T09:33:41.647Z,75.22
2022-08-01T09:34:41.650Z,74.12
2022-08-01T09:35:43.263Z,74.52
2022-08-01T09:36:41.645Z,74.92
2022-08-01T09:37:41.646Z,74.62
2022-08-01T09:38:44.984Z,73.12
2022-08-01T09:39:41.653Z,73.52
2022-08-01T09:40:41.642Z,73.52
2022-08-01T09:41:41.656Z,73.72
2022-08-01T09:42:41.643Z,73.75
2022-08-01T09:43:41.645Z,75.16
2022-08-01T09:44:42.922Z,74.55
2022-08-01T09:45:45.677Z,75.69
2022-08-01T09:46:41.642Z,73.46
2022-08-01T09:47:41.644Z,73.96
2022-08-01T09:48:41.645Z,74.05
2022-08-01T09:49:49.645Z,74.55
2022-08-01T09:50:41.639Z,74.05
2022-08-01T09:51:59.506Z,73.56
2022-08-01T09:52:41.637Z,74.12
2022-08-01T09:53:41.639Z,73.72
2022-08-01T09:54:41.635Z,72.92
2022-08-01T09:55:41.641Z,73.36
2022-08-01T09:56:41.637Z,73.06
2022-08-01T09:57:41.632Z,73.75
2022-08-01T09:58:41.639Z,73.96
2022-08-01T09:59:57.711Z,73.36
2022-08-01T10:00:45.793Z,74.49
2022-08-01T10:01:41.630Z,74.46
2022-08-01T10:02:41.643Z,74.99
2022-08-01T10:03:41.718Z,75.79
2022-08-01T10:04:41.631Z,75.39
2022-08-01T10:05:41.630Z,75.99
2022-08-01T10:06:41.943Z,76.49
2022-08-01T10:07:43.175Z,76.99
2022-08-01T10:08:41.626Z,76.79
2022-08-01T10:09:41.631Z,77.39
2022-08-01T10:10:41.625Z,77.49
2022-08-01T10:11:41.628Z,77.49
2022-08-01T10:12:44.350Z,76.69
2022-08-01T10:13:41.625Z,76.86
2022-08-01T10:14:41.621Z,76.95
2022-08-01T10:15:41.624Z,76.76
2022-08-01T10:16:41.620Z,76.56
2022-08-01T10:17:49.944Z,76.35
2022-08-01T10:18:41.623Z,77.22
2022-08-01T10:19:41.619Z,76.52
2022-08-01T10:20:41.614Z,75.32
2022-08-01T10:21:57.020Z,75.22
2022-08-01T10:22:41.616Z,75.12
2022-08-01T10:23:41.617Z,74.68
2022-08-01T10:24:41.616Z,74.58
2022-08-01T10:25:44.028Z,74.68
2022-08-01T10:26:41.613Z,73.49
2022-08-01T10:27:41.647Z,73.58
2022-08-01T10:28:41.619Z,73.19
2022-08-01T10:29:45.886Z,73.25
2022-08-01T10:30:41.666Z,72.95
2022-08-01T10:31:41.612Z,72.95
2022-08-01T10:32:41.613Z,72.85
2022-08-01T10:33:51.513Z,72.55
2022-08-01T10:34:45.058Z,72.85
2022-08-01T10:35:47.587Z,72.75
2022-08-01T10:36:41.609Z,72.45
2022-08-01T10:37:52.027Z,72.45
2022-08-01T10:38:41.610Z,73.19
2022-08-01T10:39:41.617Z,72.59
2022-08-01T10:40:41.624Z,73.28
2022-08-01T10:41:41.646Z,72.89
2022-08-01T10:42:41.613Z,73.09
2022-08-01T10:43:41.616Z,73.28
2022-08-01T10:44:41.605Z,72.82
2022-08-01T10:45:41.606Z,73.09
2022-08-01T10:46:41.610Z,72.29
2022-08-01T10:47:50.853Z,73.12
2022-08-01T10:48:41.601Z,73.32
2022-08-01T10:49:41.640Z,73.32
2022-08-01T10:50:41.604Z,73.19
2022-08-01T10:51:52.024Z,72.99
2022-08-01T10:52:41.603Z,72.49
2022-08-01T10:53:43.004Z,72.59
2022-08-01T10:54:51.896Z,72.78
2022-08-01T10:55:41.602Z,72.55
2022-08-01T10:56:41.609Z,72.49
2022-08-01T10:57:41.607Z,72.09
2022-08-01T10:58:42.822Z,72.19
2022-08-01T10:59:50.751Z,72.49
2022-08-01T11:00:41.650Z,72.62
2022-08-01T11:01:43.525Z,72.82
2022-08-01T11:02:41.597Z,73.02
2022-08-01T11:03:56.865Z,73.32
2022-08-01T11:04:41.596Z,73.56
2022-08-01T11:05:41.593Z,74.09
2022-08-01T11:06:41.599Z,75.69
2022-08-01T11:07:41.601Z,76.59
2022-08-01T11:08:41.596Z,77.43
2022-08-01T11:09:41.594Z,77.53
2022-08-01T11:10:41.603Z,78.03
2022-08-01T11:11:41.595Z,78.97
2022-08-01T11:12:41.599Z,80.51
2022-08-01T11:13:41.594Z,81.21
2022-08-01T11:14:55.766Z,82.21
2022-08-01T11:15:50.371Z,82.65
2022-08-01T11:16:41.589Z,83.05
2022-08-01T11:17:42.221Z,83.05
2022-08-01T11:18:41.595Z,83.05
2022-08-01T11:19:41.586Z,83.21
2022-08-01T11:20:42.475Z,83.01
2022-08-01T11:21:58.062Z,83.21
2022-08-01T11:22:41.584Z,81.37
2022-08-01T11:23:41.709Z,80.47
2022-08-01T11:24:41.583Z,81.47
2022-08-01T11:26:06.724Z,80.77
2022-08-01T11:26:41.576Z,80.53
2022-08-01T11:27:41.574Z,80.23
2022-08-01T11:28:50.410Z,80.09
2022-08-01T11:29:41.578Z,78.59
2022-08-01T11:30:41.572Z,77.99
2022-08-01T11:31:41.576Z,77.69
2022-08-01T11:33:05.607Z,77.25
2022-08-01T11:33:41.585Z,77.62
2022-08-01T11:34:41.587Z,76.52
2022-08-01T11:35:41.571Z,75.28
2022-08-01T11:36:58.938Z,76.48
2022-08-01T11:37:41.571Z,74.88
2022-08-01T11:38:41.571Z,75.45
2022-08-01T11:39:41.571Z,74.05
2022-08-01T11:40:41.571Z,74.75
2022-08-01T11:41:41.573Z,73.95
2022-08-01T11:42:41.567Z,75.01
2022-08-01T11:43:41.568Z,75.01
2022-08-01T11:44:41.630Z,72.98
2022-08-01T11:45:41.567Z,72.38
2022-08-01T11:46:41.571Z,72.65
2022-08-01T11:47:41.565Z,70.45
2022-08-01T11:48:41.568Z,71.55
2022-08-01T11:49:41.747Z,70.56
2022-08-01T11:50:41.569Z,72.22
2022-08-01T11:51:41.566Z,71.78
2022-08-01T11:52:41.571Z,70.56
2022-08-01T11:53:41.565Z,68.56
2022-08-01T11:54:41.570Z,69.13
2022-08-01T11:55:41.566Z,67.86
2022-08-01T11:56:43.058Z,67.17
2022-08-01T11:57:41.564Z,68.46
2022-08-01T11:58:41.572Z,68.27
2022-08-01T12:00:02.466Z,68.70
2022-08-01T12:00:43.948Z,69.96
2022-08-01T12:01:41.569Z,69.09
2022-08-01T12:02:41.613Z,68.99
2022-08-01T12:03:41.569Z,70.06
2022-08-01T12:04:41.572Z,72.05
2022-08-01T12:05:43.230Z,72.49
2022-08-01T12:06:41.613Z,72.42
2022-08-01T12:07:41.580Z,73.08
2022-08-01T12:08:41.592Z,72.88
2022-08-01T12:09:41.573Z,72.28
2022-08-01T12:10:49.490Z,73.18
2022-08-01T12:11:41.573Z,72.98
2022-08-01T12:12:41.569Z,72.38
2022-08-01T12:13:41.570Z,72.25
2022-08-01T12:14:41.576Z,72.75
2022-08-01T12:15:41.569Z,72.68
2022-08-01T12:16:41.574Z,72.78
2022-08-01T12:17:41.622Z,72.85
2022-08-01T12:18:41.572Z,72.35
2022-08-01T12:19:41.574Z,71.25
2022-08-01T12:20:55.770Z,71.72
2022-08-01T12:21:41.573Z,71.02
2022-08-01T12:22:41.581Z,71.09
2022-08-01T12:23:41.582Z,70.22
2022-08-01T12:24:41.579Z,69.82
2022-08-01T12:25:41.567Z,70.03
2022-08-01T12:26:41.570Z,69.99
2022-08-01T12:27:41.568Z,69.99
2022-08-01T12:28:41.576Z,69.20
2022-08-01T12:29:41.575Z,69.29
2022-08-01T12:30:41.580Z,68.99
2022-08-01T12:31:41.579Z,68.50
2022-08-01T12:32:41.573Z,68.70
2022-08-01T12:33:41.578Z,68.60
2022-08-01T12:34:41.578Z,67.80
2022-08-01T12:35:41.579Z,68.96
2022-08-01T12:36:41.576Z,68.46
2022-08-01T12:37:41.573Z,67.77
2022-08-01T12:38:41.578Z,65.75
2022-08-01T12:39:41.582Z,65.55
2022-08-01T12:40:45.085Z,66.11
2022-08-01T12:41:41.578Z,65.55
2022-08-01T12:42:41.576Z,65.25
2022-08-01T12:43:41.579Z,65.81
2022-08-01T12:44:41.579Z,65.61
2022-08-01T12:45:56.394Z,65.55
2022-08-01T12:46:44.514Z,65.75
2022-08-01T12:47:41.586Z,65.75
2022-08-01T12:48:41.588Z,65.28
2022-08-01T12:49:41.583Z,65.71
2022-08-01T12:50:41.580Z,67.13
2022-08-01T12:51:41.585Z,66.44
2022-08-01T12:52:41.581Z,67.86